Terminal Aerodrome Forecast
Issued by NWS Green Bay, WI

Home | Current Version | Previous Version | Text Only | Print | Product List | Glossary Off
Versions: 1 2 3 4 5 6 7 8 9 10 11 12 13 14 15 16 17 18 19 20 21 22 23 24 25 26 27 28 29 30 31 32 33

000
FTUS43 KGRB 201700
TAFGRB
TAF
KGRB 201725Z 2018/2118 32010G17KT P6SM OVC050
     FM210300 35008KT P6SM SCT040
     FM210600 36009KT P6SM BKN022
     FM211400 01012KT P6SM BKN028
      TEMPO 2116/2118 SCT028=

USA.gov is the U.S. government's official web portal to all federal, state and local government web resources and services.